Time;durP1;ratioP1;P1;durP2;ratioP2;P2;SDS_P1;SDS_P2;PMS_P1;PMS_P2;Temp;Humidity;BMP_temperature;BMP_pressure;BME280_temperature;BME280_humidity;BME280_pressure;Samples;Min_cycle;Max_cycle;Signal;HPM_P1;HPM_P2
2022/08/26 00:03:16;;;;;;;9.15;1.58;;;;;;;21.96;79.23;99592.53;5079997;28;20278;-63
2022/08/26 00:06:15;;;;;;;9.00;1.80;;;;;;;22.39;79.28;99584.03;5079577;28;20049;-63
2022/08/26 00:09:07;;;;;;;6.60;1.33;;;;;;;22.95;77.59;99595.72;5079278;28;20750;-62
2022/08/26 00:12:04;;;;;;;9.13;1.77;;;;;;;23.27;75.67;99585.22;5080120;28;20040;-62
2022/08/26 00:14:41;;;;;;;52.80;4.43;;;;;;;23.29;74.09;99577.06;5079997;28;20155;-61
2022/08/26 00:17:28;;;;;;;24.37;2.60;;;;;;;23.55;73.21;99573.16;5079488;28;20112;-65
2022/08/26 00:20:10;;;;;;;4.60;1.17;;;;;;;23.89;72.93;99567.75;5003419;28;20056;-62
2022/08/26 00:22:50;;;;;;;6.47;1.60;;;;;;;23.75;70.29;99586.72;5083532;28;20044;-63
2022/08/26 00:25:42;;;;;;;8.20;1.07;;;;;;;23.21;70.09;99575.03;5080754;28;20223;-63
2022/08/26 00:28:39;;;;;;;7.00;1.67;;;;;;;22.46;71.30;99514.31;5065404;28;20056;-63
2022/08/26 00:31:16;;;;;;;5.97;1.23;;;;;;;22.56;72.01;99590.69;5082801;28;20072;-63
2022/08/26 00:33:58;;;;;;;10.00;1.40;;;;;;;22.50;72.81;99585.00;5083380;28;20060;-61
2022/08/26 00:36:34;;;;;;;9.53;1.53;;;;;;;22.59;73.41;99525.72;5065052;28;20052;-63
2022/08/26 00:39:41;;;;;;;7.33;1.17;;;;;;;23.56;72.17;99580.16;5082890;28;20036;-61
2022/08/26 00:42:30;;;;;;;6.17;0.97;;;;;;;23.82;70.40;99580.75;5050317;28;20091;-61
2022/08/26 00:45:17;;;;;;;3.37;0.97;;;;;;;24.06;69.15;99575.22;5083458;28;20050;-60
2022/08/26 00:48:02;;;;;;;9.00;1.93;;;;;;;24.04;68.21;99585.16;5082137;28;20367;-63
2022/08/26 00:50:54;;;;;;;33.40;2.53;;;;;;;23.90;67.25;99572.13;5081513;28;20244;-60
2022/08/26 00:53:53;;;;;;;5.73;1.00;;;;;;;23.85;67.90;99585.00;5065168;28;20064;-61
2022/08/26 00:56:55;;;;;;;4.97;0.80;;;;;;;23.63;68.12;99581.38;5082769;28;20063;-62
2022/08/26 00:59:36;;;;;;;10.50;1.30;;;;;;;23.69;68.34;99566.72;5044968;28;20051;-62
2022/08/26 01:02:25;;;;;;;5.57;1.00;;;;;;;23.83;68.24;99568.25;5081861;28;20143;-61
2022/08/26 01:05:26;;;;;;;6.10;0.85;;;;;;;23.94;68.51;99565.56;5080641;28;20076;-64
2022/08/26 01:08:10;;;;;;;7.47;1.40;;;;;;;23.76;68.45;99565.22;5045062;28;20086;-62
2022/08/26 01:10:48;;;;;;;11.23;1.17;;;;;;;23.72;68.63;99546.94;5081914;28;20391;-62
2022/08/26 01:13:25;;;;;;;5.53;1.23;;;;;;;23.93;67.68;99563.84;5082306;28;20056;-60
2022/08/26 01:16:20;;;;;;;9.10;1.40;;;;;;;23.99;67.95;99560.69;5015881;28;20045;-64
2022/08/26 01:19:14;;;;;;;6.20;1.10;;;;;;;24.13;68.53;99561.34;5081098;28;20625;-65
2022/08/26 01:22:21;;;;;;;5.07;1.00;;;;;;;23.90;66.75;99556.09;5006548;28;20381;-63
2022/08/26 01:25:09;;;;;;;15.90;1.97;;;;;;;23.81;66.54;99551.53;4998365;28;20108;-61
2022/08/26 01:28:02;;;;;;;6.50;1.77;;;;;;;23.91;67.28;99557.78;5020630;28;20046;-65
2022/08/26 01:30:49;;;;;;;13.63;1.90;;;;;;;23.73;67.64;99512.16;5020377;28;20062;-62
2022/08/26 01:33:28;;;;;;;10.77;1.37;;;;;;;24.17;64.84;99552.09;5020311;28;20054;-63
2022/08/26 01:36:14;;;;;;;8.82;1.20;;;;;;;24.01;65.13;99564.06;4978195;28;20157;-62
2022/08/26 01:39:09;;;;;;;7.82;1.35;;;;;;;23.61;66.15;99559.34;5019835;28;20053;-63
2022/08/26 01:42:00;;;;;;;7.57;1.60;;;;;;;23.76;68.30;99548.38;5020348;28;20050;-62
2022/08/26 01:44:57;;;;;;;29.70;2.33;;;;;;;24.06;66.44;99551.19;5020652;28;20045;-61
2022/08/26 01:47:43;;;;;;;9.47;1.87;;;;;;;24.17;65.94;99544.94;4988504;28;20354;-60
2022/08/26 01:50:40;;;;;;;8.00;1.63;;;;;;;24.33;66.22;99537.31;5019282;28;20055;-62
2022/08/26 01:53:35;;;;;;;24.00;2.03;;;;;;;24.47;65.99;99528.16;4992190;28;20066;-62
2022/08/26 01:56:30;;;;;;;4.40;1.00;;;;;;;24.47;65.80;99533.50;4980630;28;20208;-63
2022/08/26 02:02:17;;;;;;;9.87;1.50;;;;;;;24.46;65.15;99521.16;5081691;28;20052;-61
2022/08/26 02:04:59;;;;;;;21.33;1.50;;;;;;;24.70;64.11;99526.16;5047431;28;20249;-64
2022/08/26 02:07:56;;;;;;;5.53;1.10;;;;;;;24.72;64.04;99521.53;5080697;28;20048;-62
2022/08/26 02:11:15;;;;;;;3.25;1.10;;;;;;;24.76;63.03;99522.09;5078779;28;20056;-65
2022/08/26 02:14:07;;;;;;;2.80;0.73;;;;;;;24.70;62.22;99506.63;5081367;28;20064;-62
2022/08/26 02:17:15;;;;;;;8.37;1.10;;;;;;;24.59;61.11;99493.34;5081758;28;20237;-62
2022/08/26 02:20:11;;;;;;;15.23;1.00;;;;;;;24.85;61.31;99532.00;5081415;28;20110;-61
2022/08/26 02:23:05;;;;;;;8.47;1.93;;;;;;;24.64;61.36;99510.69;5081536;28;20041;-62
2022/08/26 02:25:59;;;;;;;7.97;1.17;;;;;;;24.31;61.98;99517.94;5063539;28;20644;-63
2022/08/26 02:28:47;;;;;;;43.17;3.53;;;;;;;24.08;62.81;99522.53;5080805;28;20056;-64
2022/08/26 02:31:26;;;;;;;11.25;1.10;;;;;;;24.20;63.80;99514.47;5081064;28;20071;-63
2022/08/26 02:34:38;;;;;;;44.23;3.73;;;;;;;24.60;64.33;99519.94;5080539;28;20079;-61
2022/08/26 02:37:41;;;;;;;9.03;1.47;;;;;;;24.87;63.06;99522.03;5081248;28;20087;-61
2022/08/26 02:40:20;;;;;;;11.77;1.20;;;;;;;25.03;62.20;99536.69;5048932;28;20044;-62
2022/08/26 02:42:59;;;;;;;15.23;1.80;;;;;;;24.97;61.60;99535.44;5079916;28;20044;-63
2022/08/26 02:45:42;;;;;;;15.00;1.80;;;;;;;25.00;62.05;99539.66;5080856;28;20068;-64
2022/08/26 02:48:32;;;;;;;10.30;1.40;;;;;;;24.79;61.96;99537.88;5080665;28;20052;-65
2022/08/26 02:51:13;;;;;;;9.33;1.10;;;;;;;24.95;62.73;99554.25;5086383;28;20056;-64
2022/08/26 02:53:54;;;;;;;21.53;2.10;;;;;;;24.96;63.12;99550.63;5080315;28;20056;-66
2022/08/26 02:56:44;;;;;;;13.13;1.70;;;;;;;25.02;64.28;99543.88;5080881;28;20052;-65
2022/08/26 02:59:28;;;;;;;7.63;1.30;;;;;;;24.85;63.83;99534.66;5080522;28;20302;-64
2022/08/26 03:02:13;;;;;;;10.27;1.50;;;;;;;24.82;63.72;99537.63;5080368;28;20049;-65
2022/08/26 03:05:04;;;;;;;11.83;1.70;;;;;;;24.79;64.49;99551.25;5079455;28;20529;-66
2022/08/26 03:07:57;;;;;;;15.43;1.80;;;;;;;24.74;64.71;99545.47;5049682;28;20064;-66
2022/08/26 03:10:36;;;;;;;4.47;1.73;;;;;;;24.87;64.81;99532.72;5080703;28;20071;-64
2022/08/26 03:13:26;;;;;;;15.20;2.10;;;;;;;25.18;64.28;99543.41;5080588;28;20072;-67
2022/08/26 03:16:03;;;;;;;5.68;1.30;;;;;;;25.18;64.75;99538.03;5080007;28;20068;-65
2022/08/26 03:18:52;;;;;;;16.40;1.90;;;;;;;24.82;64.55;99486.84;5080154;28;20036;-65
2022/08/26 03:21:46;;;;;;;7.63;1.70;;;;;;;24.92;64.82;99538.50;5080473;28;20048;-63
2022/08/26 03:24:30;;;;;;;14.00;2.17;;;;;;;25.05;65.10;99526.72;5080672;28;20108;-63
2022/08/26 03:27:16;;;;;;;8.43;1.83;;;;;;;25.14;64.67;99525.94;5079917;28;20170;-62
2022/08/26 03:32:54;;;;;;;7.27;1.90;;;;;;;24.67;64.92;99517.59;5080381;28;20488;-64
2022/08/26 03:35:36;;;;;;;13.03;2.07;;;;;;;24.59;65.47;99522.72;5080619;28;20151;-61
2022/08/26 03:38:42;;;;;;;11.30;1.83;;;;;;;24.76;65.13;99522.09;5080336;28;20056;-64
2022/08/26 03:41:31;;;;;;;8.90;1.93;;;;;;;24.94;64.63;99528.53;5080056;28;20052;-62
2022/08/26 03:44:20;;;;;;;15.87;2.37;;;;;;;25.00;63.41;99529.81;5079699;28;20086;-64
2022/08/26 03:47:42;;;;;;;14.63;2.03;;;;;;;24.97;63.74;99528.25;5061988;28;20076;-62
2022/08/26 03:51:02;;;;;;;9.13;1.70;;;;;;;24.89;63.68;99522.75;5037789;28;20483;-63
2022/08/26 03:53:52;;;;;;;10.60;1.60;;;;;;;25.04;64.15;99525.06;5036843;28;20330;-64
2022/08/26 03:56:35;;;;;;;30.37;2.47;;;;;;;25.02;63.48;99522.50;5040697;28;20223;-64
2022/08/26 04:02:15;;;;;;;8.87;1.97;;;;;;;24.43;64.79;99534.69;5041095;28;20050;-61
2022/08/26 04:05:10;;;;;;;20.17;2.47;;;;;;;24.03;65.81;99535.41;5042256;28;20045;-61
2022/08/26 04:08:01;;;;;;;7.47;1.90;;;;;;;23.61;66.89;99508.66;5042452;28;20112;-63
2022/08/26 04:10:39;;;;;;;18.40;2.40;;;;;;;23.56;67.59;99526.84;5042428;28;20065;-62
2022/08/26 04:13:22;;;;;;;14.73;2.30;;;;;;;23.47;68.58;99539.13;4995119;28;20049;-61
2022/08/26 05:03:20;;;;;;;36.40;3.53;;;;;;;23.72;71.92;99514.94;5066100;28;20055;-61
2022/08/26 05:06:07;;;;;;;15.43;2.23;;;;;;;23.61;71.97;99508.66;5064945;28;20045;-62
2022/08/26 05:08:51;;;;;;;14.73;3.07;;;;;;;23.37;72.55;99489.34;5065827;28;20088;-61
2022/08/26 05:11:36;;;;;;;7.77;2.60;;;;;;;23.35;72.75;99512.63;5065157;28;20073;-60
2022/08/26 05:17:26;;;;;;;23.48;3.80;;;;;;;23.46;73.26;99515.25;5047069;28;20071;-61
2022/08/26 05:23:30;;;;;;;5.20;1.90;;;;;;;23.63;71.75;99512.03;5064488;28;20087;-61
2022/08/26 05:26:20;;;;;;;28.77;2.67;;;;;;;23.52;70.69;99506.75;5065859;28;20053;-63
2022/08/26 05:35:02;;;;;;;10.30;2.80;;;;;;;23.52;71.71;99519.25;5064705;28;20063;-62
2022/08/26 05:41:00;;;;;;;7.87;2.23;;;;;;;23.41;71.70;99528.09;5064983;28;20360;-62
2022/08/26 05:46:41;;;;;;;;;;;;;;;;;;;;;
2022/08/26 05:52:24;;;;;;;9.00;1.93;;;;;;;24.03;69.82;99546.09;5081672;28;20060;-64
2022/08/26 05:58:30;;;;;;;18.55;2.85;;;;;;;23.27;71.22;99496.41;5053114;28;20064;-64
2022/08/26 06:04:33;;;;;;;8.67;1.97;;;;;;;23.87;71.52;99527.84;5081163;28;20100;-63
2022/08/26 06:07:09;;;;;;;15.67;1.90;;;;;;;24.07;70.43;99534.19;5079262;28;20075;-66
2022/08/26 06:09:51;;;;;;;27.30;3.40;;;;;;;23.54;69.73;99454.16;5081062;28;20107;-62
2022/08/26 06:12:46;;;;;;;27.93;2.97;;;;;;;24.07;70.11;99552.88;5078751;28;20114;-64
2022/08/26 06:15:28;;;;;;;20.57;2.97;;;;;;;23.97;70.06;99557.28;5048818;28;20124;-65
2022/08/26 06:18:19;;;;;;;9.87;2.10;;;;;;;23.79;70.59;99551.66;5080884;28;20052;-65
2022/08/26 06:20:57;;;;;;;11.47;2.30;;;;;;;23.64;71.08;99559.06;5081273;28;20058;-63
2022/08/26 06:27:08;;;;;;;5.87;1.83;;;;;;;23.52;71.55;99557.41;5080442;28;20083;-64
2022/08/26 06:30:29;;;;;;;10.87;2.90;;;;;;;23.48;71.30;99547.97;5080222;28;20056;-64
2022/08/26 06:33:17;;;;;;;11.17;2.20;;;;;;;23.41;71.90;99560.09;5056410;28;20041;-65
2022/08/26 06:35:56;;;;;;;10.07;2.27;;;;;;;23.39;72.27;99556.72;5081685;28;20056;-62
2022/08/26 06:38:51;;;;;;;14.82;2.78;;;;;;;23.34;72.18;99543.75;5080514;28;20104;-64
2022/08/26 06:41:44;;;;;;;11.30;2.07;;;;;;;23.29;72.53;99561.94;5008842;28;20060;-63
2022/08/26 06:44:26;;;;;;;7.23;2.00;;;;;;;23.22;72.84;99556.25;5081123;28;20048;-65
2022/08/26 06:47:15;;;;;;;9.23;2.10;;;;;;;23.20;73.00;99558.19;5057825;28;20047;-65
2022/08/26 06:49:57;;;;;;;7.40;1.73;;;;;;;23.25;73.24;99553.34;5063841;28;20142;-63
2022/08/26 06:52:51;;;;;;;10.70;2.87;;;;;;;23.39;73.50;99546.06;5081155;28;20057;-62
2022/08/26 06:55:53;;;;;;;14.67;2.30;;;;;;;23.54;73.53;99539.47;5080993;28;20098;-64
2022/08/26 06:58:40;;;;;;;12.87;2.63;;;;;;;23.68;72.92;99543.66;5081198;28;20109;-63
2022/08/26 07:01:26;;;;;;;9.27;2.50;;;;;;;23.66;72.11;99538.47;5081137;28;20107;-64
2022/08/26 07:07:18;;;;;;;35.80;4.10;;;;;;;23.49;71.44;99552.34;5039004;28;20041;-63
2022/08/26 07:10:11;;;;;;;13.53;2.17;;;;;;;23.34;72.00;99542.91;5038102;28;20041;-64
2022/08/26 07:12:56;;;;;;;17.17;2.87;;;;;;;23.29;72.62;99545.09;5039296;28;20076;-64
2022/08/26 07:15:36;;;;;;;9.77;2.30;;;;;;;23.34;73.05;99566.88;5038103;28;20697;-64
2022/08/26 07:18:26;;;;;;;10.87;2.43;;;;;;;23.32;73.42;99552.84;5036911;28;20052;-64
2022/08/26 07:24:16;;;;;;;18.40;2.80;;;;;;;23.34;73.96;99553.56;5037863;28;20091;-63
2022/08/26 07:26:56;;;;;;;15.10;2.70;;;;;;;23.20;74.66;99531.53;5037774;28;20117;-63
2022/08/26 07:29:35;;;;;;;21.53;3.30;;;;;;;23.34;74.43;99558.88;5037672;28;20053;-63
2022/08/26 07:32:25;;;;;;;47.50;4.32;;;;;;;23.30;73.80;99562.78;5035858;28;20080;-65
2022/08/26 07:35:09;;;;;;;14.17;2.33;;;;;;;23.10;73.56;99567.91;5038168;28;20092;-65
2022/08/26 07:38:07;;;;;;;14.50;2.20;;;;;;;22.80;73.64;99563.13;5022679;28;20033;-64
2022/08/26 07:43:57;;;;;;;13.20;2.40;;;;;;;22.75;74.09;99568.81;5037612;28;20084;-64
2022/08/26 07:47:04;;;;;;;11.13;2.00;;;;;;;22.76;74.34;99554.53;5037962;28;20073;-64
2022/08/26 07:50:07;;;;;;;13.73;2.03;;;;;;;22.95;74.26;99580.56;5037386;28;20117;-64
2022/08/26 07:52:47;;;;;;;13.03;2.60;;;;;;;22.92;74.25;99582.66;4978960;28;20184;-64
2022/08/26 07:55:30;;;;;;;14.67;2.60;;;;;;;22.87;73.96;99585.66;5038471;28;20053;-66
2022/08/26 07:58:33;;;;;;;12.57;2.70;;;;;;;22.63;74.55;99579.59;5036833;28;20358;-64
2022/08/26 08:01:22;;;;;;;12.93;1.83;;;;;;;22.51;74.79;99582.22;5038330;28;20061;-63
2022/08/26 08:04:13;;;;;;;17.80;2.53;;;;;;;22.54;74.74;99586.44;5038338;28;20334;-63
2022/08/26 08:09:44;;;;;;;32.00;3.20;;;;;;;22.50;75.46;99598.31;5041073;28;20053;-64
2022/08/26 08:12:31;;;;;;;70.17;5.23;;;;;;;22.53;75.24;99606.06;5079951;28;20071;-64
2022/08/26 08:15:10;;;;;;;11.33;2.30;;;;;;;22.30;74.93;99568.75;5049688;28;20056;-64
2022/08/26 08:18:01;;;;;;;19.23;2.70;;;;;;;22.39;75.36;99605.31;5080060;28;20116;-63
2022/08/26 08:21:04;;;;;;;13.23;3.17;;;;;;;22.33;75.93;99605.75;5049762;28;20094;-63
2022/08/26 08:23:55;;;;;;;23.37;3.87;;;;;;;22.21;76.10;99605.84;5049565;28;20063;-63
2022/08/26 08:26:37;;;;;;;10.53;2.17;;;;;;;22.15;76.47;99601.81;5079275;28;20060;-64
2022/08/26 08:29:21;;;;;;;11.10;3.00;;;;;;;22.07;76.39;99601.53;5055195;28;20067;-64
2022/08/26 08:32:18;;;;;;;14.80;3.03;;;;;;;21.98;76.56;99606.56;5078646;28;20086;-65
2022/08/26 08:35:04;;;;;;;9.07;2.75;;;;;;;21.89;77.14;99628.53;5079595;28;20059;-64
2022/08/26 08:37:49;;;;;;;13.30;2.83;;;;;;;21.80;77.27;99629.19;5080065;28;20072;-65
2022/08/26 08:40:28;;;;;;;11.87;3.30;;;;;;;21.41;77.92;99585.09;5078983;28;20064;-64
2022/08/26 08:43:04;;;;;;;10.53;2.73;;;;;;;21.60;77.98;99645.75;5083066;28;20486;-63
2022/08/26 08:45:48;;;;;;;16.97;2.97;;;;;;;21.51;78.41;99644.59;5083547;28;20064;-64
2022/08/26 08:48:29;;;;;;;12.20;2.60;;;;;;;21.45;78.67;99651.22;5083150;28;20815;-64
2022/08/26 08:51:32;;;;;;;15.23;2.57;;;;;;;20.95;79.02;99599.81;5083250;28;20051;-63
2022/08/26 08:54:18;;;;;;;15.10;3.00;;;;;;;21.13;79.18;99634.00;5032139;28;20074;-64
2022/08/26 08:57:04;;;;;;;10.33;2.30;;;;;;;21.11;79.74;99653.53;5083339;28;20279;-65
2022/08/26 08:59:59;;;;;;;11.10;2.33;;;;;;;20.97;80.34;99658.97;5081789;28;20286;-63
2022/08/26 09:05:50;;;;;;;12.00;3.22;;;;;;;20.70;81.58;99668.84;5082722;28;20279;-63
2022/08/26 09:08:35;;;;;;;17.77;5.13;;;;;;;20.56;82.12;99678.56;5082873;28;20140;-65
2022/08/26 09:11:16;;;;;;;13.20;4.10;;;;;;;20.43;82.97;99683.81;5083000;28;20689;-64
2022/08/26 09:13:59;;;;;;;14.90;4.63;;;;;;;20.33;83.39;99688.03;5065618;28;20373;-64
2022/08/26 09:16:52;;;;;;;19.00;3.83;;;;;;;20.28;83.94;99705.22;5080631;28;20776;-64
2022/08/26 09:19:48;;;;;;;53.17;5.20;;;;;;;20.16;84.49;99697.09;5082258;28;20293;-64
2022/08/26 09:22:36;;;;;;;28.87;3.50;;;;;;;20.15;84.43;99706.00;5082767;28;20314;-66
2022/08/26 09:25:33;;;;;;;13.50;3.17;;;;;;;20.08;84.94;99714.47;5081370;28;20286;-65
2022/08/26 09:28:17;;;;;;;15.95;3.42;;;;;;;19.63;85.07;99651.00;5054311;28;20314;-65
2022/08/26 09:31:14;;;;;;;38.23;3.50;;;;;;;19.91;85.63;99718.19;5082592;28;20060;-64
2022/08/26 09:34:13;;;;;;;12.63;2.90;;;;;;;19.86;85.93;99714.97;5048922;28;20389;-64
2022/08/26 09:37:34;;;;;;;14.20;2.60;;;;;;;19.71;86.36;99706.19;5082501;28;20291;-64
2022/08/26 09:40:29;;;;;;;19.23;2.67;;;;;;;19.63;87.04;99719.91;5020871;28;20293;-65
2022/08/26 09:43:27;;;;;;;24.57;3.17;;;;;;;19.62;86.75;99726.16;5017613;28;20293;-63
2022/08/26 09:46:19;;;;;;;12.30;2.10;;;;;;;19.36;86.97;99699.47;5020882;28;20285;-65
2022/08/26 09:49:30;;;;;;;8.83;2.20;;;;;;;19.56;87.18;99740.63;5020751;28;20343;-65
2022/08/26 09:52:42;;;;;;;9.03;2.33;;;;;;;19.48;87.35;99747.34;5019833;28;20324;-64
2022/08/26 09:55:27;;;;;;;14.87;2.13;;;;;;;19.35;87.57;99756.06;4989681;28;20534;-64
2022/08/26 09:58:19;;;;;;;46.93;4.67;;;;;;;19.22;87.62;99739.22;4988883;28;20305;-64
2022/08/26 10:01:13;;;;;;;14.93;2.83;;;;;;;19.29;88.11;99772.31;5020179;28;20419;-65
2022/08/26 10:05:05;;;;;;;9.70;2.27;;;;;;;19.19;88.17;99768.50;5020149;28;20308;-64
2022/08/26 10:12:51;;;;;;;18.20;3.00;;;;;;;19.09;88.45;99772.66;5018731;28;20319;-64
2022/08/26 10:15:45;;;;;;;17.63;2.43;;;;;;;19.03;88.68;99773.03;4971046;28;20308;-64
2022/08/26 10:18:29;;;;;;;13.10;2.67;;;;;;;19.05;88.75;99787.03;5073828;28;20291;-65
2022/08/26 10:24:42;;;;;;;46.77;3.33;;;;;;;18.93;89.06;99800.03;5080663;28;20283;-64
2022/08/26 10:30:49;;;;;;;8.63;2.00;;;;;;;18.81;89.07;99795.44;5081704;28;20302;-65
2022/08/26 10:33:28;;;;;;;13.57;2.47;;;;;;;18.81;88.81;99800.75;5081733;28;20078;-64
2022/08/26 10:36:47;;;;;;;10.73;2.43;;;;;;;18.71;88.67;99797.75;5080761;28;20283;-65
2022/08/26 10:39:47;;;;;;;12.77;3.30;;;;;;;18.67;88.62;99803.28;5081605;28;20282;-64
2022/08/26 10:42:54;;;;;;;10.67;2.60;;;;;;;18.56;88.51;99803.91;5080207;28;20283;-64
2022/08/26 10:45:35;;;;;;;10.97;2.80;;;;;;;18.56;88.44;99816.28;5081565;28;20290;-65
2022/08/26 10:51:37;;;;;;;23.27;3.87;;;;;;;18.45;88.55;99808.97;5081048;28;20298;-64
2022/08/26 10:54:21;;;;;;;35.37;3.20;;;;;;;18.43;88.29;99816.97;5080999;28;20485;-64
2022/08/26 10:57:13;;;;;;;11.50;2.30;;;;;;;18.25;88.66;99813.56;5081287;28;20283;-64
2022/08/26 11:01:40;;;;;;;11.03;2.23;;;;;;;18.26;88.65;99827.66;5062401;28;20934;-64
2022/08/26 11:03:34;;;;;;;13.40;4.20;;;;;;;18.13;88.79;99829.25;5080481;28;20487;-65
2022/08/26 11:06:35;;;;;;;12.03;2.30;;;;;;;18.04;88.94;99834.09;5081060;28;20290;-66
2022/08/26 11:09:17;;;;;;;8.27;2.10;;;;;;;17.96;88.95;99832.81;5081333;28;20282;-66
2022/08/26 11:12:03;;;;;;;11.70;2.50;;;;;;;17.91;89.14;99834.84;5051017;28;20287;-67
2022/08/26 11:15:01;;;;;;;13.57;2.30;;;;;;;17.87;89.37;99850.00;5081413;28;20394;-66
2022/08/26 11:18:07;;;;;;;11.90;2.20;;;;;;;17.77;89.37;99846.97;5080990;28;20338;-65
2022/08/26 11:21:00;;;;;;;14.57;2.13;;;;;;;17.78;89.65;99853.13;5080635;28;20271;-65
2022/08/26 11:23:48;;;;;;;13.27;3.27;;;;;;;17.66;89.54;99842.25;5080743;28;20290;-64
2022/08/26 11:26:42;;;;;;;12.00;2.37;;;;;;;17.69;89.78;99842.06;5080570;28;20279;-64
2022/08/26 11:30:01;;;;;;;8.57;2.30;;;;;;;17.64;89.63;99849.38;5080899;28;20302;-65
2022/08/26 11:33:02;;;;;;;11.07;2.20;;;;;;;17.57;89.72;99857.72;5080765;28;20551;-64
2022/08/26 11:35:58;;;;;;;12.67;2.00;;;;;;;17.55;89.68;99855.19;5080944;28;20298;-66
2022/08/26 11:38:51;;;;;;;24.37;2.73;;;;;;;17.54;89.51;99866.66;5050406;28;20340;-64
2022/08/26 11:41:43;;;;;;;18.40;2.87;;;;;;;17.54;89.30;99874.59;5080624;28;20297;-65
2022/08/26 11:44:27;;;;;;;9.17;1.77;;;;;;;17.50;89.57;99873.06;5080531;28;20368;-64
2022/08/26 11:47:06;;;;;;;21.53;3.03;;;;;;;17.49;89.88;99871.31;5080994;28;20348;-64
2022/08/26 11:49:45;;;;;;;10.80;2.20;;;;;;;17.23;89.97;99844.47;5080430;28;20318;-65
2022/08/26 11:52:27;;;;;;;13.10;3.20;;;;;;;17.45;89.90;99901.47;5048566;28;20083;-66
2022/08/26 11:55:35;;;;;;;26.90;2.30;;;;;;;17.38;90.21;99905.38;5080176;28;20302;-63
2022/08/26 11:58:31;;;;;;;17.90;2.60;;;;;;;17.32;90.29;99905.66;5080447;28;20294;-66
2022/08/26 12:01:34;;;;;;;22.60;3.25;;;;;;;17.06;91.15;99878.75;5080026;28;20285;-65
2022/08/26 12:07:33;;;;;;;17.73;2.67;;;;;;;17.18;91.87;99914.28;5080670;28;20282;-66
2022/08/26 12:10:28;;;;;;;18.10;3.07;;;;;;;17.14;92.45;99913.56;5062870;28;20824;-64
2022/08/26 12:13:34;;;;;;;28.20;3.30;;;;;;;17.15;92.32;99925.84;5080439;28;20344;-65
2022/08/26 12:16:07;;;;;;;28.38;3.22;;;;;;;17.12;92.07;99936.53;5081945;28;20332;-65
2022/08/26 12:18:45;;;;;;;15.87;2.93;;;;;;;17.10;92.18;99941.06;5083471;28;20063;-66
2022/08/26 12:21:39;;;;;;;15.63;3.67;;;;;;;17.06;92.31;99947.41;5085298;28;20297;-64
2022/08/26 12:24:26;;;;;;;13.33;2.90;;;;;;;17.03;92.73;99958.13;5086983;28;20859;-67
2022/08/26 12:27:26;;;;;;;16.73;3.30;;;;;;;16.82;93.90;99928.31;5086710;28;20291;-66
2022/08/26 12:30:09;;;;;;;19.97;3.93;;;;;;;17.09;94.84;99963.06;5086621;28;20293;-67
2022/08/26 12:33:16;;;;;;;10.87;2.83;;;;;;;17.08;95.33;99950.81;5054831;28;20299;-67
2022/08/26 12:36:12;;;;;;;11.40;3.57;;;;;;;17.08;95.64;99937.63;5086516;28;20275;-67
2022/08/26 12:39:15;;;;;;;17.77;3.13;;;;;;;17.15;95.62;99951.41;5086002;28;20301;-65
2022/08/26 12:41:58;;;;;;;9.47;3.80;;;;;;;16.99;94.86;99940.69;5086579;28;20297;-65
2022/08/26 12:44:40;;;;;;;13.30;3.37;;;;;;;16.68;93.92;99928.94;5086258;28;20320;-67
2022/08/26 12:47:40;;;;;;;14.20;3.83;;;;;;;16.42;93.31;99922.22;5086147;28;20349;-66
2022/08/26 12:50:34;;;;;;;11.33;3.87;;;;;;;16.08;93.35;99888.66;5086373;28;20299;-64
2022/08/26 12:53:28;;;;;;;18.23;3.80;;;;;;;16.32;94.04;99940.22;5086130;28;20332;-68
2022/08/26 12:56:21;;;;;;;28.37;4.27;;;;;;;16.30;95.09;99944.75;5086067;28;20421;-66
2022/08/26 12:59:21;;;;;;;21.13;4.10;;;;;;;16.27;95.37;99947.50;5086187;28;20299;-64
2022/08/26 13:01:54;;;;;;;22.60;3.40;;;;;;;15.95;95.71;99894.47;5076827;28;20402;-67
2022/08/26 13:04:48;;;;;;;17.33;3.30;;;;;;;16.33;96.03;99960.41;5065716;28;20276;-65
2022/08/26 13:07:45;;;;;;;13.50;2.78;;;;;;;16.27;96.88;99958.03;5049548;28;20302;-67
2022/08/26 13:10:38;;;;;;;8.95;2.97;;;;;;;16.17;96.83;99931.25;5047236;28;20239;-67
2022/08/26 13:13:21;;;;;;;34.93;5.03;;;;;;;16.33;96.74;99962.22;5032691;28;20068;-68
2022/08/26 13:16:12;;;;;;;42.77;4.60;;;;;;;16.39;96.85;99978.59;5049152;28;20349;-68
2022/08/26 13:19:04;;;;;;;17.80;4.10;;;;;;;16.10;96.60;99915.75;5031296;28;20291;-69
2022/08/26 13:21:58;;;;;;;22.07;4.40;;;;;;;16.34;96.71;99953.34;5065815;28;20291;-67
2022/08/26 13:27:48;;;;;;;15.90;4.10;;;;;;;16.42;96.92;99971.47;5064170;28;20292;-67
2022/08/26 13:33:34;;;;;;;24.07;5.47;;;;;;;15.91;97.17;99908.69;5065337;28;20301;-66
2022/08/26 13:36:17;;;;;;;22.37;5.37;;;;;;;16.29;97.39;99969.38;5065259;28;20533;-67
2022/08/26 13:38:52;;;;;;;16.88;5.03;;;;;;;16.44;97.67;99985.44;5064781;28;20291;-68
2022/08/26 13:44:23;;;;;;;27.80;7.03;;;;;;;16.55;98.58;99981.41;5065221;28;20318;-68
2022/08/26 13:50:04;;;;;;;24.57;7.17;;;;;;;16.67;99.02;99987.88;5064665;28;20309;-68
2022/08/26 13:52:37;;;;;;;23.37;6.20;;;;;;;16.68;99.14;99997.53;5065188;28;20394;-66
2022/08/26 13:58:13;;;;;;;16.40;6.00;;;;;;;16.74;99.35;99989.31;5065136;28;20275;-67
2022/08/26 14:03:49;;;;;;;22.77;4.70;;;;;;;16.79;99.85;99997.06;5064774;28;20345;-66
2022/08/26 14:06:46;;;;;;;14.33;4.50;;;;;;;16.89;100.00;100005.41;5065062;28;20276;-66
2022/08/26 14:09:26;;;;;;;38.17;6.90;;;;;;;16.94;100.00;99996.34;5064267;28;20464;-68
2022/08/26 14:12:05;;;;;;;33.50;5.50;;;;;;;16.89;100.00;99973.75;5063487;28;20295;-68
2022/08/26 14:15:03;;;;;;;21.03;5.70;;;;;;;17.08;100.00;99987.78;5032215;28;20180;-65
2022/08/26 14:17:55;;;;;;;16.80;5.67;;;;;;;17.11;100.00;99992.91;5064260;28;20304;-69
2022/08/26 14:20:31;;;;;;;17.67;5.40;;;;;;;17.03;100.00;99979.22;5065026;28;20308;-65
2022/08/26 14:23:15;;;;;;;15.67;5.43;;;;;;;17.15;100.00;99999.75;5030805;28;20324;-67
2022/08/26 14:25:54;;;;;;;18.23;5.43;;;;;;;17.21;100.00;100015.28;5064321;28;20284;-65
2022/08/26 14:28:35;;;;;;;14.45;4.95;;;;;;;17.29;100.00;100016.72;5064901;28;20288;-67
2022/08/26 14:31:13;;;;;;;16.13;5.17;;;;;;;17.20;100.00;99992.47;5031837;28;20060;-65
2022/08/26 14:33:58;;;;;;;19.80;5.50;;;;;;;17.39;100.00;100020.63;5063145;28;20276;-64
2022/08/26 14:36:40;;;;;;;17.30;5.07;;;;;;;17.44;100.00;100010.69;5063561;28;20331;-64
2022/08/26 14:39:35;;;;;;;22.23;5.73;;;;;;;17.34;100.00;99988.31;5045827;28;20338;-67
2022/08/26 14:42:37;;;;;;;21.70;5.10;;;;;;;17.39;100.00;99992.41;5063450;28;20298;-65
2022/08/26 14:45:42;;;;;;;18.40;5.37;;;;;;;17.58;100.00;100024.09;5064158;28;20288;-65
2022/08/26 14:48:33;;;;;;;20.10;5.37;;;;;;;17.45;100.00;100009.78;5064149;28;20294;-67
2022/08/26 14:51:20;;;;;;;22.67;5.47;;;;;;;17.56;100.00;100036.50;5047097;28;20477;-68
2022/08/26 14:56:59;;;;;;;28.33;5.03;;;;;;;17.56;100.00;100019.81;5063531;28;19963;-69
2022/08/26 14:59:38;;;;;;;18.67;4.93;;;;;;;17.66;100.00;100032.47;5063084;28;20284;-64
2022/08/26 15:02:25;;;;;;;14.67;4.43;;;;;;;17.72;100.00;100019.91;5032580;28;20346;-68
2022/08/26 15:05:13;;;;;;;24.77;5.20;;;;;;;17.75;100.00;100025.06;5063702;28;20285;-69
2022/08/26 15:08:08;;;;;;;26.53;4.97;;;;;;;17.77;100.00;100020.53;5035963;28;20279;-63
2022/08/26 15:10:46;;;;;;;15.65;4.85;;;;;;;17.74;100.00;100013.59;5063717;28;20302;-68
2022/08/26 15:13:30;;;;;;;21.23;4.80;;;;;;;17.80;100.00;100020.41;5063397;28;20085;-66
2022/08/26 15:16:14;;;;;;;21.03;4.63;;;;;;;17.86;100.00;100020.09;5031756;28;20311;-65
2022/08/26 15:19:16;;;;;;;15.67;4.60;;;;;;;17.87;100.00;100013.88;5032290;28;20312;-68
2022/08/26 15:21:57;;;;;;;16.83;4.87;;;;;;;17.96;100.00;100023.13;5063545;28;20287;-67
2022/08/26 15:24:44;;;;;;;17.37;4.43;;;;;;;17.99;100.00;100023.81;5063266;28;20588;-66
2022/08/26 15:27:37;;;;;;;22.97;4.70;;;;;;;18.00;100.00;100009.69;5063813;28;20295;-69
2022/08/26 15:30:21;;;;;;;16.03;4.50;;;;;;;18.02;100.00;100010.47;5063079;28;20283;-66
2022/08/26 15:33:14;;;;;;;22.30;4.97;;;;;;;18.04;100.00;100016.50;5063056;28;20296;-70
2022/08/26 15:35:50;;;;;;;19.33;4.38;;;;;;;18.06;100.00;100013.81;5063760;28;20326;-67